Time;durP1;ratioP1;P1;durP2;ratioP2;P2;SDS_P1;SDS_P2;PMS_P1;PMS_P2;Temp;Humidity;BMP_temperature;BMP_pressure;BME280_temperature;BME280_humidity;BME280_pressure;Samples;Min_cycle;Max_cycle;Signal;HPM_P1;HPM_P2
2022/07/22 00:00:12;;;;;;;12.25;5.10;;;;;;;21.25;100.00;102038.28;7395222;19;20021;-48
2022/07/22 00:02:41;;;;;;;13.52;5.13;;;;;;;20.83;100.00;102040.28;7396591;19;20018;-48
2022/07/22 00:05:11;;;;;;;13.15;5.50;;;;;;;21.33;100.00;102038.56;7392692;19;20012;-50
2022/07/22 00:07:42;;;;;;;14.63;5.55;;;;;;;21.40;100.00;102044.31;7394344;19;20014;-53
2022/07/22 00:10:13;;;;;;;13.23;5.68;;;;;;;21.32;100.00;102041.34;7390922;19;20344;-49
2022/07/22 00:12:42;;;;;;;15.52;5.60;;;;;;;21.65;100.00;102047.94;7395407;19;20029;-50
2022/07/22 00:15:12;;;;;;;12.30;5.80;;;;;;;21.84;100.00;102042.97;7392302;19;20022;-47
2022/07/22 00:17:41;;;;;;;14.63;5.82;;;;;;;21.87;100.00;102045.41;7394890;19;20078;-48
2022/07/22 00:20:11;;;;;;;14.13;5.93;;;;;;;21.90;100.00;102044.34;7395309;19;20011;-48
2022/07/22 00:22:43;;;;;;;13.68;5.45;;;;;;;21.88;100.00;102043.59;7396951;19;20025;-45
2022/07/22 00:25:13;;;;;;;14.70;5.18;;;;;;;21.92;100.00;102043.28;7394278;19;20022;-49
2022/07/22 00:27:42;;;;;;;12.43;5.40;;;;;;;21.92;100.00;102040.59;7395024;19;20011;-46
2022/07/22 00:30:12;;;;;;;12.57;5.65;;;;;;;21.84;100.00;102048.31;7391274;19;20013;-46
2022/07/22 00:32:41;;;;;;;13.90;5.90;;;;;;;21.46;100.00;102043.03;7395361;19;20505;-48
2022/07/22 00:35:10;;;;;;;16.77;6.13;;;;;;;21.17;100.00;102035.28;7391418;19;20014;-48
2022/07/22 00:37:39;;;;;;;12.65;5.20;;;;;;;21.07;100.00;102029.75;7392789;19;20018;-47
2022/07/22 00:40:12;;;;;;;15.38;6.07;;;;;;;20.85;100.00;102035.72;7389959;19;20014;-47
2022/07/22 00:42:41;;;;;;;13.75;5.90;;;;;;;21.27;100.00;102037.19;7394618;19;20550;-47
2022/07/22 00:45:11;;;;;;;13.68;5.63;;;;;;;21.39;100.00;102034.59;7388996;19;20014;-51
2022/07/22 00:47:40;;;;;;;12.98;5.43;;;;;;;21.21;100.00;102026.97;7395154;19;20026;-49
2022/07/22 00:50:09;;;;;;;14.50;5.50;;;;;;;21.28;100.00;102030.06;7391263;19;20077;-48
2022/07/22 00:52:39;;;;;;;15.32;5.72;;;;;;;21.46;100.00;102025.22;7392336;19;20006;-53
2022/07/22 00:55:11;;;;;;;12.75;5.75;;;;;;;21.63;100.00;102026.69;7390436;19;20543;-47
2022/07/22 00:57:40;;;;;;;15.27;5.60;;;;;;;21.67;100.00;102025.53;7391504;19;20010;-47
2022/07/22 01:00:13;;;;;;;11.82;6.07;;;;;;;21.79;100.00;102023.78;7389879;19;20014;-47
2022/07/22 01:02:42;;;;;;;16.00;6.30;;;;;;;21.79;100.00;102023.78;7390378;19;20049;-47
2022/07/22 01:05:11;;;;;;;12.93;5.93;;;;;;;21.76;100.00;102024.88;7389292;19;20018;-46
2022/07/22 01:07:41;;;;;;;16.23;5.53;;;;;;;21.74;100.00;102026.78;7392877;19;20018;-48
2022/07/22 01:10:13;;;;;;;13.35;6.05;;;;;;;21.85;100.00;102020.69;7390483;19;20018;-47
2022/07/22 01:12:42;;;;;;;15.10;6.60;;;;;;;21.89;100.00;102019.50;7392363;19;20491;-48
2022/07/22 01:15:13;;;;;;;12.27;5.18;;;;;;;21.99;100.00;102016.97;7389209;19;20361;-48
2022/07/22 01:17:42;;;;;;;11.93;5.10;;;;;;;21.84;100.00;102023.47;7390814;19;20015;-47
2022/07/22 01:20:14;;;;;;;10.30;4.88;;;;;;;21.72;100.00;102014.50;7386760;19;20010;-47
2022/07/22 01:22:44;;;;;;;12.20;5.47;;;;;;;21.80;100.00;102017.47;7394269;19;20491;-47
2022/07/22 01:25:13;;;;;;;10.77;4.47;;;;;;;21.69;100.00;102018.28;7389214;19;20022;-50
2022/07/22 01:27:42;;;;;;;9.07;4.70;;;;;;;21.54;100.00;102022.03;7393726;19;20033;-47
2022/07/22 01:30:13;;;;;;;12.05;4.70;;;;;;;21.66;100.00;102031.81;7391726;19;20106;-52
2022/07/22 01:32:42;;;;;;;16.05;5.10;;;;;;;21.25;100.00;102027.59;7392069;19;20026;-51
2022/07/22 01:35:14;;;;;;;15.27;5.05;;;;;;;21.59;100.00;102019.88;7387741;19;20074;-46
2022/07/22 01:37:43;;;;;;;11.25;4.72;;;;;;;21.66;100.00;102023.81;7391961;19;20015;-47
2022/07/22 01:40:13;;;;;;;15.02;4.82;;;;;;;21.72;100.00;102026.06;7387147;19;20018;-47
2022/07/22 01:42:42;;;;;;;14.25;5.30;;;;;;;21.87;100.00;102028.56;7394381;19;20395;-49
2022/07/22 01:45:13;;;;;;;13.23;5.07;;;;;;;21.78;100.00;102033.59;7387053;19;20110;-47
2022/07/22 01:47:42;;;;;;;9.73;4.90;;;;;;;21.72;100.00;102026.06;7391058;19;20074;-50
2022/07/22 01:50:15;;;;;;;10.45;4.43;;;;;;;21.75;100.00;102028.50;7388325;19;20007;-48
2022/07/22 01:52:44;;;;;;;11.63;4.93;;;;;;;21.55;100.00;102031.72;7391163;19;20725;-45
2022/07/22 01:55:13;;;;;;;12.85;4.80;;;;;;;21.19;100.00;102026.22;7393467;19;20022;-44
2022/07/22 01:57:42;;;;;;;14.32;5.47;;;;;;;21.46;100.00;102022.53;7399429;19;20131;-44
2022/07/22 02:00:20;;;;;;;13.63;4.82;;;;;;;21.12;100.00;102018.75;7396749;19;20015;-44
2022/07/22 02:02:49;;;;;;;12.18;4.68;;;;;;;21.08;100.00;102013.63;7395745;19;20127;-44
2022/07/22 02:05:21;;;;;;;15.32;5.40;;;;;;;20.92;100.00;102018.34;7395784;19;20024;-49
2022/07/22 02:07:50;;;;;;;10.77;4.55;;;;;;;21.24;100.00;102020.56;7394605;19;20019;-43
2022/07/22 02:10:21;;;;;;;12.10;4.72;;;;;;;21.30;100.00;102025.44;7396927;19;20045;-43
2022/07/22 02:12:50;;;;;;;13.90;5.10;;;;;;;21.28;100.00;102011.38;7397319;19;20019;-47
2022/07/22 02:15:20;;;;;;;15.35;4.80;;;;;;;21.26;100.00;102011.50;7395384;19;20015;-45
2022/07/22 02:17:49;;;;;;;15.45;5.13;;;;;;;21.34;100.00;102013.59;7396717;19;20022;-46
2022/07/22 02:20:21;;;;;;;12.23;5.00;;;;;;;21.55;100.00;102003.25;7396034;19;20016;-46
2022/07/22 02:22:50;;;;;;;16.75;5.78;;;;;;;21.25;100.00;102008.94;7400549;19;20026;-47
2022/07/22 02:25:19;;;;;;;12.27;5.32;;;;;;;21.15;100.00;102007.88;7396818;19;20076;-45
2022/07/22 02:27:48;;;;;;;13.98;6.22;;;;;;;21.36;100.00;102003.72;7398517;19;20085;-45
2022/07/22 02:30:17;;;;;;;9.25;5.20;;;;;;;21.43;100.00;102007.63;7400029;19;20018;-46
2022/07/22 02:32:46;;;;;;;11.07;4.70;;;;;;;21.61;100.00;102004.63;7399199;19;20206;-52
2022/07/22 02:35:15;;;;;;;18.13;5.90;;;;;;;21.51;100.00;102007.09;7393202;19;20014;-47
2022/07/22 02:37:47;;;;;;;12.68;5.40;;;;;;;21.19;100.00;102007.56;7398024;19;20010;-45
2022/07/22 02:40:16;;;;;;;11.18;5.30;;;;;;;21.34;100.00;101997.63;7394131;19;20010;-47
2022/07/22 02:42:46;;;;;;;14.98;5.15;;;;;;;21.44;100.00;102003.16;7398746;19;20483;-50
2022/07/22 02:45:15;;;;;;;10.80;5.00;;;;;;;21.33;100.00;102000.38;7394373;19;20007;-48
2022/07/22 02:47:52;;;;;;;15.27;5.20;;;;;;;20.99;100.00;102003.63;7398966;19;20142;-45
2022/07/22 02:50:22;;;;;;;12.68;5.05;;;;;;;21.03;100.00;101997.13;7395059;19;20360;-48
2022/07/22 02:52:53;;;;;;;11.20;5.63;;;;;;;21.15;100.00;102000.75;7399704;19;20006;-45
2022/07/22 02:55:26;;;;;;;10.23;4.95;;;;;;;21.13;100.00;102001.81;7397199;19;20011;-47
2022/07/22 02:57:57;;;;;;;11.82;5.20;;;;;;;21.24;100.00;102000.06;7398042;19;20010;-46
2022/07/22 03:00:26;;;;;;;13.40;4.95;;;;;;;21.02;100.00;101998.09;7397611;19;20022;-46
2022/07/22 03:02:55;;;;;;;14.23;4.95;;;;;;;21.17;100.00;102000.63;7396411;19;20015;-47
2022/07/22 03:05:24;;;;;;;11.27;4.55;;;;;;;21.11;100.00;102004.59;7396314;19;20015;-47
2022/07/22 03:08:01;;;;;;;11.57;5.20;;;;;;;21.33;100.00;102006.56;7400463;19;20021;-53
2022/07/22 03:10:30;;;;;;;9.82;4.88;;;;;;;21.54;100.00;102003.38;7394906;19;20348;-51
2022/07/22 03:12:59;;;;;;;9.18;4.38;;;;;;;21.07;100.00;102005.75;7401383;19;20533;-50
2022/07/22 03:15:28;;;;;;;8.65;4.85;;;;;;;21.15;100.00;102005.19;7398443;19;20018;-51
2022/07/22 03:17:57;;;;;;;9.32;4.65;;;;;;;21.33;100.00;102011.06;7399220;19;20023;-52
2022/07/22 03:20:28;;;;;;;11.95;4.97;;;;;;;21.54;100.00;102008.72;7397299;19;20023;-52
2022/07/22 03:22:57;;;;;;;10.35;4.38;;;;;;;21.54;100.00;102006.03;7399851;19;20108;-50
2022/07/22 03:25:30;;;;;;;11.80;5.00;;;;;;;21.64;100.00;102001.75;7394252;19;20076;-52
2022/07/22 03:27:59;;;;;;;15.80;4.93;;;;;;;21.64;100.00;102008.91;7399544;19;20033;-53
2022/07/22 03:30:28;;;;;;;12.93;4.97;;;;;;;21.44;100.00;102014.66;7398434;19;20022;-54
2022/07/22 03:32:57;;;;;;;9.00;4.57;;;;;;;21.44;100.00;102022.66;7399607;19;20350;-49
2022/07/22 03:35:26;;;;;;;10.45;4.55;;;;;;;21.53;100.00;102031.00;7394342;19;20025;-51
2022/07/22 03:37:56;;;;;;;12.30;4.80;;;;;;;21.41;100.00;102022.03;7396145;19;20027;-53
2022/07/22 03:40:29;;;;;;;13.98;4.85;;;;;;;21.36;100.00;102029.50;7393440;19;20014;-52
2022/07/22 03:42:59;;;;;;;11.95;4.50;;;;;;;21.21;100.00;102020.78;7394271;19;20050;-53
2022/07/22 03:45:28;;;;;;;11.27;4.38;;;;;;;21.47;100.00;102016.25;7393299;19;20347;-52
2022/07/22 03:47:57;;;;;;;16.48;5.53;;;;;;;21.60;100.00;102010.94;7394720;19;20054;-51
2022/07/22 03:50:27;;;;;;;11.57;4.32;;;;;;;21.75;100.00;102011.66;7396515;19;20418;-50
2022/07/22 03:52:57;;;;;;;7.78;4.95;;;;;;;21.78;100.00;102014.09;7398624;19;20018;-51
2022/07/22 03:55:29;;;;;;;14.07;5.00;;;;;;;21.74;100.00;102012.59;7393330;19;20022;-53
2022/07/22 03:57:59;;;;;;;14.52;5.00;;;;;;;21.72;100.00;102002.03;7397817;19;20018;-48
2022/07/22 04:00:32;;;;;;;14.80;4.80;;;;;;;21.65;100.00;102002.59;7393839;19;20534;-50
2022/07/22 04:03:03;;;;;;;14.25;5.30;;;;;;;21.64;100.00;102004.41;7396433;19;20502;-53
2022/07/22 04:05:51;;;;;;;11.98;5.13;;;;;;;21.65;100.00;102003.47;7398950;19;20077;-50
2022/07/22 04:08:30;;;;;;;13.68;5.43;;;;;;;21.68;100.00;102008.56;7397148;19;20723;-53
2022/07/22 04:11:04;;;;;;;11.55;5.30;;;;;;;21.83;100.00;102001.25;7392573;19;20034;-50
2022/07/22 04:13:33;;;;;;;11.63;5.07;;;;;;;21.82;100.00;102002.22;7398968;19;20018;-54
2022/07/22 04:16:02;;;;;;;15.50;5.70;;;;;;;21.88;100.00;102008.91;7395918;19;20026;-51
2022/07/22 04:18:32;;;;;;;11.40;5.63;;;;;;;21.85;100.00;102004.66;7397346;19;20123;-49
2022/07/22 04:21:01;;;;;;;15.32;6.00;;;;;;;21.84;100.00;102016.28;7395124;19;20021;-52
2022/07/22 04:23:35;;;;;;;10.60;5.95;;;;;;;21.81;100.00;102003.19;7396049;19;20023;-52
2022/07/22 04:26:17;;;;;;;10.15;5.70;;;;;;;21.82;100.00;102009.34;7392690;19;20015;-52
2022/07/22 04:28:46;;;;;;;12.73;5.57;;;;;;;21.89;100.00;102011.50;7398956;19;20478;-54
2022/07/22 04:31:15;;;;;;;16.00;6.60;;;;;;;21.82;100.00;102010.22;7395701;19;20017;-50
2022/07/22 04:33:45;;;;;;;13.35;5.90;;;;;;;21.81;100.00;102010.31;7397522;19;20483;-48
2022/07/22 04:36:14;;;;;;;12.30;5.75;;;;;;;21.79;100.00;102010.44;7393078;19;20026;-53
2022/07/22 04:38:44;;;;;;;12.80;5.65;;;;;;;21.82;100.00;102007.56;7393458;19;20018;-51
2022/07/22 04:41:16;;;;;;;10.98;5.88;;;;;;;21.72;100.00;102003.84;7397429;19;20092;-50
2022/07/22 04:43:45;;;;;;;12.30;5.32;;;;;;;21.75;100.00;102007.16;7399253;19;20010;-52
2022/07/22 04:46:14;;;;;;;10.57;5.20;;;;;;;21.71;100.00;102011.00;7395037;19;20022;-49
2022/07/22 04:48:45;;;;;;;6.90;4.13;;;;;;;21.70;100.00;102003.13;7397447;19;20011;-51
2022/07/22 04:51:15;;;;;;;10.52;4.60;;;;;;;21.65;100.00;102010.59;7396013;19;20021;-54
2022/07/22 04:53:46;;;;;;;9.02;4.00;;;;;;;21.69;100.00;102007.59;7393778;19;20010;-52
2022/07/22 04:56:19;;;;;;;10.35;3.90;;;;;;;21.78;100.00;102014.94;7392064;19;20491;-51
2022/07/22 04:58:48;;;;;;;10.93;3.97;;;;;;;21.77;100.00;102013.22;7393631;19;20026;-48
2022/07/22 05:01:17;;;;;;;9.18;3.65;;;;;;;21.71;100.00;102007.50;7394883;19;20489;-51
2022/07/22 05:03:51;;;;;;;7.30;3.63;;;;;;;21.69;100.00;102007.59;7394262;19;20018;-51
2022/07/22 05:06:20;;;;;;;10.32;3.42;;;;;;;21.41;100.00;102009.53;7392582;19;20045;-51
2022/07/22 05:08:49;;;;;;;9.82;4.10;;;;;;;21.37;100.00;102007.22;7393346;19;20015;-48
2022/07/22 05:11:21;;;;;;;11.95;3.83;;;;;;;21.48;100.00;102004.63;7391445;19;20514;-50
2022/07/22 05:13:50;;;;;;;10.13;3.87;;;;;;;21.52;100.00;102005.28;7395022;19;20030;-48
2022/07/22 05:16:20;;;;;;;10.07;3.40;;;;;;;21.53;100.00;101999.00;7392532;19;20029;-48
2022/07/22 05:18:49;;;;;;;9.45;3.13;;;;;;;21.52;100.00;102003.50;7394538;19;20025;-51
2022/07/22 05:21:18;;;;;;;8.45;2.95;;;;;;;21.64;100.00;101995.56;7394099;19;20014;-51
2022/07/22 05:23:47;;;;;;;9.75;3.33;;;;;;;21.59;100.00;102001.22;7393062;19;20007;-52
2022/07/22 05:26:20;;;;;;;8.80;3.20;;;;;;;21.57;100.00;102000.47;7391831;19;20472;-48
2022/07/22 05:28:49;;;;;;;9.98;3.35;;;;;;;21.63;100.00;102002.69;7394512;19;20367;-53
2022/07/22 05:31:18;;;;;;;11.52;3.60;;;;;;;21.61;100.00;101993.97;7406089;19;20010;-50
2022/07/22 05:33:47;;;;;;;6.60;3.10;;;;;;;21.65;100.00;102002.59;7401783;19;20006;-51
2022/07/22 05:36:29;;;;;;;8.13;3.38;;;;;;;21.71;100.00;102003.00;7400312;19;20351;-50
2022/07/22 05:38:59;;;;;;;14.60;3.42;;;;;;;21.67;100.00;102006.00;7402302;19;20043;-49
2022/07/22 05:41:31;;;;;;;6.38;3.03;;;;;;;21.70;100.00;102003.13;7406645;19;20021;-50
2022/07/22 05:43:59;;;;;;;7.38;3.30;;;;;;;21.63;100.00;102012.53;7402583;19;20010;-52
2022/07/22 05:46:29;;;;;;;7.72;3.10;;;;;;;21.67;100.00;102014.00;7400215;19;20011;-52
2022/07/22 05:48:58;;;;;;;8.82;3.03;;;;;;;21.73;100.00;102021.56;7403401;19;20022;-53
2022/07/22 05:51:27;;;;;;;9.48;2.83;;;;;;;21.72;100.00;102010.03;7402366;19;20494;-52
2022/07/22 05:53:56;;;;;;;8.50;3.00;;;;;;;21.76;100.00;102022.19;7401631;19;20120;-53
2022/07/22 05:56:25;;;;;;;9.52;2.95;;;;;;;21.68;100.00;102013.91;7398472;19;20117;-50
2022/07/22 05:58:57;;;;;;;8.57;2.78;;;;;;;21.69;100.00;102015.59;7401505;19;20023;-55
2022/07/22 06:01:26;;;;;;;11.80;2.97;;;;;;;21.74;100.00;102018.78;7403043;19;20026;-50
2022/07/22 06:03:57;;;;;;;9.77;3.40;;;;;;;21.89;100.00;102021.28;7401850;19;20053;-50
2022/07/22 06:06:26;;;;;;;8.75;3.33;;;;;;;21.80;100.00;102025.47;7396196;19;20018;-52
2022/07/22 06:08:55;;;;;;;8.73;2.85;;;;;;;21.72;100.00;102023.38;7398173;19;20018;-53
2022/07/22 06:11:25;;;;;;;6.90;2.90;;;;;;;21.76;100.00;102024.88;7403381;19;20019;-53
2022/07/22 06:13:56;;;;;;;11.32;3.28;;;;;;;21.73;100.00;102017.06;7403834;19;20545;-50
2022/07/22 06:16:26;;;;;;;6.88;2.47;;;;;;;21.90;100.00;102020.34;7398160;19;20498;-55
2022/07/22 06:18:58;;;;;;;9.80;3.22;;;;;;;21.91;100.00;102022.88;7402123;19;20045;-53
2022/07/22 06:21:28;;;;;;;10.20;2.92;;;;;;;21.89;100.00;102022.16;7401514;19;20473;-51
2022/07/22 06:23:57;;;;;;;12.93;3.30;;;;;;;21.97;100.00;102028.75;7399483;19;20410;-55
2022/07/22 06:26:26;;;;;;;8.95;2.58;;;;;;;21.97;100.00;102028.75;7399520;19;20077;-53
2022/07/22 06:28:57;;;;;;;9.38;3.03;;;;;;;21.95;100.00;102037.72;7401971;19;20026;-52
2022/07/22 06:31:26;;;;;;;8.25;2.70;;;;;;;21.86;100.00;102040.19;7405248;19;20022;-53
2022/07/22 06:33:55;;;;;;;7.68;2.70;;;;;;;21.82;100.00;102026.25;7398654;19;20028;-53
2022/07/22 06:36:25;;;;;;;9.68;3.13;;;;;;;21.86;100.00;102030.38;7398637;19;20014;-52
2022/07/22 06:38:54;;;;;;;6.50;2.70;;;;;;;21.92;100.00;102021.94;7396105;19;20014;-54
2022/07/22 06:41:23;;;;;;;7.60;2.67;;;;;;;22.07;100.00;102022.59;7399146;19;20382;-54
2022/07/22 06:44:21;;;;;;;11.13;2.78;;;;;;;21.97;100.00;102021.59;7399908;19;20015;-53
2022/07/22 06:47:03;;;;;;;6.97;2.58;;;;;;;22.00;100.00;102017.84;7401837;19;20052;-52
2022/07/22 06:49:32;;;;;;;11.38;6.13;;;;;;;22.00;100.00;102018.69;7403054;19;20022;-57
2022/07/22 06:52:01;;;;;;;9.13;3.38;;;;;;;22.00;100.00;102020.50;7401768;19;20575;-53
2022/07/22 06:54:30;;;;;;;4.80;1.90;;;;;;;22.07;100.00;102022.59;7398963;19;20520;-56
2022/07/22 06:57:02;;;;;;;11.38;2.35;;;;;;;22.00;100.00;102018.69;7400793;19;20015;-55
2022/07/22 06:59:37;;;;;;;10.27;2.50;;;;;;;22.05;100.00;102023.66;7404023;19;20357;-57
2022/07/22 07:02:11;;;;;;;7.18;2.70;;;;;;;22.05;100.00;102013.88;7404499;19;20045;-56
2022/07/22 07:04:40;;;;;;;8.05;2.40;;;;;;;22.10;100.00;102017.03;7404885;19;20010;-53
2022/07/22 07:07:10;;;;;;;7.28;2.03;;;;;;;22.06;100.00;102014.72;7401014;19;20029;-51
2022/07/22 07:09:46;;;;;;;6.97;2.28;;;;;;;22.06;100.00;102017.38;7398946;19;20018;-51
2022/07/22 07:12:21;;;;;;;10.23;2.80;;;;;;;22.21;100.00;102010.03;7400474;19;20382;-52
2022/07/22 07:15:18;;;;;;;6.15;2.53;;;;;;;22.23;100.00;102008.94;7401808;19;20014;-53
2022/07/22 07:17:47;;;;;;;11.77;2.70;;;;;;;22.16;100.00;102002.38;7398589;19;20021;-51
2022/07/22 07:20:18;;;;;;;12.38;2.83;;;;;;;22.24;100.00;102010.66;7399997;19;20018;-52
2022/07/22 07:22:48;;;;;;;5.07;1.95;;;;;;;22.35;100.00;102014.38;7402171;19;20014;-53
2022/07/22 07:25:18;;;;;;;6.32;2.70;;;;;;;22.25;100.00;102016.84;7400047;19;20007;-52
2022/07/22 07:27:47;;;;;;;6.22;2.63;;;;;;;22.30;100.00;102015.53;7401162;19;20014;-55
2022/07/22 07:30:21;;;;;;;10.05;2.40;;;;;;;22.22;100.00;102020.63;7399051;19;20014;-53
2022/07/22 07:32:50;;;;;;;6.88;2.90;;;;;;;22.13;100.00;102010.63;7398971;19;20014;-58
2022/07/22 07:35:19;;;;;;;9.10;2.70;;;;;;;22.25;100.00;102004.38;7396537;19;20022;-53
2022/07/22 07:37:48;;;;;;;8.05;2.53;;;;;;;22.38;100.00;102000.78;7399837;19;20477;-54
2022/07/22 07:40:17;;;;;;;7.50;2.28;;;;;;;22.33;100.00;102009.16;7395711;19;20021;-53
2022/07/22 07:42:46;;;;;;;8.73;2.85;;;;;;;22.38;100.00;102007.00;7399117;19;20025;-55
2022/07/22 07:45:15;;;;;;;4.53;2.38;;;;;;;22.47;100.00;102010.78;7392951;19;20011;-48
2022/07/22 07:47:46;;;;;;;7.20;2.28;;;;;;;22.50;100.00;102015.88;7398769;19;20018;-54
2022/07/22 07:50:16;;;;;;;9.18;2.83;;;;;;;22.49;100.00;102014.19;7396217;19;20471;-53
2022/07/22 07:52:47;;;;;;;6.63;2.78;;;;;;;22.51;100.00;102020.28;7394421;19;20030;-52
2022/07/22 07:55:18;;;;;;;10.20;2.92;;;;;;;22.54;100.00;102022.72;7399720;19;20064;-48
2022/07/22 07:57:48;;;;;;;9.70;3.10;;;;;;;22.63;100.00;102019.31;7398914;19;20598;-47
2022/07/22 08:00:20;;;;;;;8.43;3.60;;;;;;;22.71;100.00;102018.75;7395666;19;20018;-51
2022/07/22 08:02:53;;;;;;;5.95;2.63;;;;;;;22.68;100.00;102021.66;7397357;19;20017;-53
2022/07/22 08:05:23;;;;;;;10.05;3.42;;;;;;;22.64;100.00;102018.34;7396237;19;20022;-54
2022/07/22 08:07:52;;;;;;;11.93;3.25;;;;;;;22.61;100.00;102018.59;7396067;19;20078;-51
2022/07/22 08:10:22;;;;;;;6.78;2.83;;;;;;;22.78;100.00;102021.78;7395931;19;20023;-53
2022/07/22 08:13:30;;;;;;;7.25;2.90;;;;;;;22.64;100.00;102023.69;7394169;19;20014;-51
2022/07/22 08:16:17;;;;;;;7.53;2.53;;;;;;;22.68;100.00;102015.44;7395041;19;20018;-46
2022/07/22 08:18:49;;;;;;;7.05;2.47;;;;;;;22.89;100.00;102026.31;7390178;19;20023;-46
2022/07/22 08:21:18;;;;;;;7.75;2.83;;;;;;;22.81;100.00;102021.56;7393925;19;20014;-48
2022/07/22 08:23:58;;;;;;;6.85;2.60;;;;;;;23.24;100.00;102020.91;7393319;19;20034;-48
2022/07/22 08:26:28;;;;;;;8.10;2.72;;;;;;;23.10;100.00;102024.63;7389815;19;20002;-45
2022/07/22 08:28:57;;;;;;;12.50;2.85;;;;;;;23.37;100.00;102012.75;7393968;19;20022;-46
2022/07/22 08:31:25;;;;;;;10.15;3.00;;;;;;;23.00;100.00;102023.66;7391345;19;20015;-45
2022/07/22 08:33:59;;;;;;;8.02;3.00;;;;;;;23.01;100.00;102027.16;7394839;19;20348;-47
2022/07/22 08:36:28;;;;;;;10.05;3.03;;;;;;;23.06;100.00;102014.31;7391642;19;20424;-45
2022/07/22 08:38:57;;;;;;;7.63;2.88;;;;;;;22.89;100.00;102007.59;7393029;19;20018;-47
2022/07/22 08:41:26;;;;;;;8.63;2.95;;;;;;;22.83;100.00;102006.25;7398114;19;20596;-46
2022/07/22 08:43:56;;;;;;;8.30;2.95;;;;;;;22.95;100.00;101999.97;7396608;19;20011;-47
2022/07/22 08:46:25;;;;;;;6.20;2.88;;;;;;;23.07;100.00;102006.16;7393571;19;20046;-49
2022/07/22 08:49:15;;;;;;;9.13;3.17;;;;;;;22.70;100.00;102001.00;7397481;19;20398;-48
2022/07/22 08:51:58;;;;;;;10.10;3.42;;;;;;;22.91;100.00;102006.50;7395645;19;20014;-53
2022/07/22 08:54:30;;;;;;;10.68;3.10;;;;;;;22.90;100.00;101996.78;7396670;19;20025;-49
2022/07/22 08:57:01;;;;;;;7.28;2.90;;;;;;;22.94;100.00;101992.06;7390826;19;20014;-47
2022/07/22 08:59:30;;;;;;;7.47;2.72;;;;;;;22.98;100.00;101997.03;7392840;19;20112;-51
2022/07/22 09:02:04;;;;;;;6.88;3.13;;;;;;;23.05;100.00;101993.88;7393889;19;20039;-50
2022/07/22 09:04:53;;;;;;;7.60;3.17;;;;;;;22.96;100.00;101998.97;7391259;19;20023;-50
2022/07/22 09:07:30;;;;;;;10.80;3.03;;;;;;;22.96;100.00;101990.94;7393419;19;20034;-48
2022/07/22 09:10:06;;;;;;;7.95;3.40;;;;;;;23.05;100.00;102002.72;7391013;19;20387;-51
2022/07/22 09:12:59;;;;;;;10.57;3.40;;;;;;;23.09;100.00;102000.69;7390281;19;20030;-50
2022/07/22 09:15:50;;;;;;;7.60;3.33;;;;;;;23.26;100.00;102004.72;7391563;19;20029;-52
2022/07/22 09:18:49;;;;;;;10.55;3.40;;;;;;;22.83;99.97;102005.41;7390367;19;20044;-51
2022/07/22 09:21:50;;;;;;;6.90;3.15;;;;;;;22.94;100.00;101992.06;7391248;19;20070;-50
2022/07/22 09:24:31;;;;;;;7.45;2.65;;;;;;;22.91;97.89;101981.59;7390704;19;20021;-49
2022/07/22 09:27:25;;;;;;;9.15;2.50;;;;;;;23.04;100.00;101989.50;7390559;19;20029;-51
2022/07/22 09:30:24;;;;;;;9.43;3.67;;;;;;;22.86;100.00;101997.16;7390404;19;20490;-48
2022/07/22 09:32:57;;;;;;;9.70;3.05;;;;;;;23.02;100.00;101989.63;7389448;19;20015;-49
2022/07/22 09:35:48;;;;;;;8.63;3.38;;;;;;;23.23;100.00;101988.94;7387363;19;20042;-51
2022/07/22 09:38:21;;;;;;;8.73;3.00;;;;;;;23.39;100.00;101994.75;7388184;19;20023;-51
2022/07/22 09:40:51;;;;;;;6.28;2.63;;;;;;;23.49;99.81;101998.38;7392379;19;20014;-50
2022/07/22 09:43:22;;;;;;;10.13;3.25;;;;;;;23.56;96.62;102000.56;7391803;19;20011;-50
2022/07/22 09:45:53;;;;;;;8.10;3.05;;;;;;;23.45;95.75;102004.94;7386704;19;20029;-53
2022/07/22 09:48:25;;;;;;;6.03;2.50;;;;;;;23.50;91.34;102004.59;7388478;19;20014;-49
2022/07/22 09:50:56;;;;;;;6.32;2.13;;;;;;;23.52;87.64;101999.97;7392455;19;20072;-50
2022/07/22 09:53:41;;;;;;;8.15;2.45;;;;;;;23.62;91.59;101989.38;7391476;19;20014;-49
2022/07/22 09:56:16;;;;;;;6.03;2.10;;;;;;;23.56;83.78;101987.19;7386312;19;20038;-50
2022/07/22 09:58:45;;;;;;;6.07;2.47;;;;;;;23.68;88.53;101986.19;7388494;19;20030;-47
2022/07/22 10:01:22;;;;;;;7.40;2.30;;;;;;;23.86;92.33;101986.50;7390271;19;20011;-47
2022/07/22 10:03:54;;;;;;;6.32;2.38;;;;;;;23.90;90.17;101989.78;7390223;19;20053;-48
2022/07/22 10:06:23;;;;;;;7.32;2.22;;;;;;;23.81;85.37;101991.38;7389995;19;20598;-52
2022/07/22 10:08:58;;;;;;;5.72;2.28;;;;;;;23.88;89.25;101981.06;7389484;19;20007;-52
2022/07/22 10:11:27;;;;;;;5.82;1.90;;;;;;;23.98;87.68;101984.66;7391485;19;20023;-49
2022/07/22 10:13:57;;;;;;;5.65;2.03;;;;;;;24.00;81.43;101977.38;7390844;19;20090;-47
2022/07/22 10:16:26;;;;;;;3.75;2.00;;;;;;;24.15;87.21;101977.91;7394932;19;20018;-49
2022/07/22 10:18:56;;;;;;;7.07;2.55;;;;;;;24.42;85.22;101989.94;7393365;19;20049;-48
2022/07/22 10:21:34;;;;;;;6.40;2.00;;;;;;;24.47;77.23;101987.72;7397690;19;20014;-50
2022/07/22 10:24:13;;;;;;;6.03;2.30;;;;;;;24.42;80.43;101979.25;7397989;19;20094;-50
2022/07/22 10:26:50;;;;;;;3.47;1.65;;;;;;;24.44;82.74;101975.41;7396253;19;20010;-49
2022/07/22 10:29:30;;;;;;;4.90;2.10;;;;;;;24.32;78.99;101971.13;7398170;19;20046;-49
2022/07/22 10:32:25;;;;;;;7.20;2.42;;;;;;;24.24;77.50;101981.63;7395183;19;20025;-49
2022/07/22 10:38:11;;;;;;;7.10;2.17;;;;;;;24.15;80.83;101985.94;7395069;19;20011;-50
2022/07/22 10:40:55;;;;;;;4.93;2.20;;;;;;;24.27;77.53;101973.34;7396971;19;20114;-48
2022/07/22 10:43:26;;;;;;;3.88;2.38;;;;;;;23.69;75.04;101979.00;7398939;19;20419;-52
2022/07/22 10:45:57;;;;;;;3.33;1.98;;;;;;;23.55;76.47;101978.31;7392652;19;20431;-50
2022/07/22 10:48:47;;;;;;;5.88;1.92;;;;;;;23.32;69.25;101978.31;7396476;19;20011;-51
2022/07/22 10:51:17;;;;;;;7.50;1.95;;;;;;;23.59;76.20;101978.91;7396196;19;20600;-50
2022/07/22 10:53:56;;;;;;;6.13;2.25;;;;;;;23.97;78.64;101980.28;7395639;19;20015;-47
2022/07/22 10:56:30;;;;;;;8.05;2.17;;;;;;;23.38;71.55;101973.47;7392432;19;20023;-55
2022/07/22 10:59:02;;;;;;;5.85;2.10;;;;;;;23.65;76.12;101973.06;7393202;19;20099;-50
2022/07/22 11:01:33;;;;;;;3.42;1.80;;;;;;;22.98;70.89;101977.47;7396123;19;20018;-54
2022/07/22 11:04:15;;;;;;;7.28;2.33;;;;;;;23.50;71.65;101978.69;7396855;19;20017;-49
2022/07/22 11:06:46;;;;;;;4.88;2.50;;;;;;;23.58;73.69;101975.38;7393578;19;20022;-53
2022/07/22 11:09:16;;;;;;;9.13;2.92;;;;;;;24.14;79.79;101977.06;7397063;19;20010;-51
2022/07/22 11:11:50;;;;;;;6.28;2.30;;;;;;;24.33;72.05;101971.00;7394836;19;20353;-47
2022/07/22 11:14:24;;;;;;;4.28;2.28;;;;;;;23.92;64.81;101979.81;7396366;19;20038;-48
2022/07/22 11:16:54;;;;;;;8.43;4.80;;;;;;;23.57;66.75;101979.03;7396672;19;20039;-49
2022/07/22 11:19:25;;;;;;;4.43;2.15;;;;;;;23.73;67.70;101977.78;7394214;19;20082;-50
2022/07/22 11:21:56;;;;;;;5.47;1.95;;;;;;;23.99;64.94;101964.94;7398106;19;20422;-49
2022/07/22 11:24:26;;;;;;;4.93;1.95;;;;;;;23.94;67.55;101968.03;7396569;19;20026;-51
2022/07/22 11:26:59;;;;;;;4.43;2.20;;;;;;;24.14;72.65;101961.00;7390060;19;20010;-54
2022/07/22 11:29:30;;;;;;;3.92;1.80;;;;;;;24.41;66.85;101959.63;7396620;19;20015;-52
2022/07/22 11:32:00;;;;;;;5.18;2.28;;;;;;;24.56;67.34;101945.88;7396678;19;20029;-53
2022/07/22 11:34:31;;;;;;;3.92;2.40;;;;;;;24.70;72.32;101948.25;7395232;19;20014;-52
2022/07/22 11:37:00;;;;;;;5.00;2.03;;;;;;;24.75;72.06;101950.56;7393965;19;20026;-49
2022/07/22 11:39:31;;;;;;;6.25;2.80;;;;;;;24.91;76.87;101944.69;7393868;19;20010;-53